createdAt,value
2024-05-09T00:00:22.479Z,52.93
2024-05-09T00:01:19.356Z,47.13
2024-05-09T00:02:17.487Z,46.71
2024-05-09T00:03:17.303Z,52.73
2024-05-09T00:04:17.337Z,46.46
2024-05-09T00:05:17.305Z,45.29
2024-05-09T00:06:17.320Z,46.86
2024-05-09T00:07:17.244Z,47.03
2024-05-09T00:08:17.272Z,48.01
2024-05-09T00:09:17.249Z,48.22
2024-05-09T00:10:25.347Z,48.57
2024-05-09T00:11:19.300Z,52.59
2024-05-09T00:12:17.308Z,48.22
2024-05-09T00:13:17.173Z,44.99
2024-05-09T00:14:17.216Z,46.02
2024-05-09T00:15:17.244Z,51.13
2024-05-09T00:16:17.196Z,44.36
2024-05-09T00:17:17.236Z,43.59
2024-05-09T00:18:17.350Z,43.62
2024-05-09T00:19:17.281Z,43.56
2024-05-09T00:20:23.969Z,46.18
2024-05-09T00:21:19.147Z,45.32
2024-05-09T00:22:17.122Z,47.21
2024-05-09T00:23:17.090Z,48.76
2024-05-09T00:24:17.080Z,47.04
2024-05-09T00:25:17.061Z,50.15
2024-05-09T00:26:17.168Z,51.40
2024-05-09T00:27:17.041Z,47.75
2024-05-09T00:28:17.032Z,48.42
2024-05-09T00:29:17.110Z,47.42
2024-05-09T00:30:24.370Z,52.00
2024-05-09T00:31:19.033Z,47.11
2024-05-09T00:32:17.137Z,47.09
2024-05-09T00:33:17.110Z,45.85
2024-05-09T00:34:17.098Z,49.07
2024-05-09T00:35:16.989Z,51.88
2024-05-09T00:36:16.959Z,50.48
2024-05-09T00:37:16.936Z,51.81
2024-05-09T00:38:17.007Z,46.57
2024-05-09T00:39:16.934Z,44.68
2024-05-09T00:40:26.452Z,46.92
2024-05-09T00:41:19.885Z,48.42
2024-05-09T00:42:17.894Z,44.85
2024-05-09T00:43:16.889Z,45.24
2024-05-09T00:44:16.881Z,47.48
2024-05-09T00:45:16.849Z,47.73
2024-05-09T00:46:16.829Z,51.63
2024-05-09T00:47:16.934Z,49.44
2024-05-09T00:48:19.758Z,45.42
2024-05-09T00:49:16.950Z,45.56
2024-05-09T00:50:22.938Z,44.74
2024-05-09T00:51:17.844Z,47.67
2024-05-09T00:52:16.775Z,48.12
2024-05-09T00:53:16.781Z,49.14
2024-05-09T00:54:16.770Z,44.30
2024-05-09T00:55:16.750Z,44.66
2024-05-09T00:56:16.800Z,46.63
2024-05-09T00:57:16.727Z,52.15
2024-05-09T00:58:16.707Z,49.99
2024-05-09T00:59:16.786Z,46.82
2024-05-09T01:00:26.131Z,48.68
2024-05-09T01:01:18.732Z,48.17
2024-05-09T01:02:16.754Z,51.28
2024-05-09T01:03:16.916Z,49.05
2024-05-09T01:04:16.718Z,48.28
2024-05-09T01:05:16.800Z,51.97
2024-05-09T01:06:16.657Z,51.59
2024-05-09T01:07:16.607Z,52.91
2024-05-09T01:08:16.798Z,48.72
2024-05-09T01:09:16.614Z,48.87
2024-05-09T01:10:21.286Z,50.55
2024-05-09T01:11:18.728Z,51.11
2024-05-09T01:12:16.640Z,47.00
2024-05-09T01:13:16.588Z,50.16
2024-05-09T01:14:16.585Z,46.12
2024-05-09T01:15:16.549Z,49.95
2024-05-09T01:16:16.565Z,46.61
2024-05-09T01:17:16.775Z,48.58
2024-05-09T01:18:16.681Z,46.23
2024-05-09T01:19:16.649Z,50.76
2024-05-09T01:20:20.328Z,44.99
2024-05-09T01:21:18.584Z,46.53
2024-05-09T01:22:16.463Z,45.88
2024-05-09T01:23:16.837Z,53.22
2024-05-09T01:24:16.458Z,53.53
2024-05-09T01:25:16.443Z,51.54
2024-05-09T01:26:16.485Z,50.16
2024-05-09T01:27:16.438Z,46.57
2024-05-09T01:28:16.608Z,47.81
2024-05-09T01:29:16.475Z,45.34
2024-05-09T01:30:21.054Z,44.73
2024-05-09T01:31:18.364Z,45.84
2024-05-09T01:32:16.459Z,43.87
2024-05-09T01:33:16.630Z,49.07
2024-05-09T01:34:16.414Z,44.88
2024-05-09T01:35:16.510Z,48.96
2024-05-09T01:36:16.325Z,46.36
2024-05-09T01:37:16.300Z,48.18
2024-05-09T01:38:16.358Z,47.08
2024-05-09T01:39:16.321Z,47.27
2024-05-09T01:40:21.992Z,43.85
2024-05-09T01:41:17.292Z,44.11
2024-05-09T01:42:16.280Z,48.23
2024-05-09T01:43:16.272Z,44.65
2024-05-09T01:44:16.279Z,44.81
2024-05-09T01:45:16.228Z,43.38
2024-05-09T01:46:16.210Z,43.05
2024-05-09T01:47:16.332Z,43.74
2024-05-09T01:48:16.357Z,48.39
2024-05-09T01:49:16.399Z,44.20
2024-05-09T01:50:16.677Z,43.42
2024-05-09T01:51:17.297Z,47.07
2024-05-09T01:52:16.179Z,46.16
2024-05-09T01:53:16.274Z,47.55
2024-05-09T01:54:16.144Z,46.29
2024-05-09T01:55:16.130Z,46.17
2024-05-09T01:56:16.186Z,47.98
2024-05-09T01:57:16.124Z,49.54
2024-05-09T01:58:16.110Z,50.04
2024-05-09T01:59:16.132Z,47.65
2024-05-09T02:00:22.237Z,44.48
2024-05-09T02:01:17.095Z,47.53
2024-05-09T02:02:16.249Z,43.46
2024-05-09T02:03:17.681Z,46.07
2024-05-09T02:04:16.209Z,45.22
2024-05-09T02:05:16.324Z,42.73
2024-05-09T02:06:16.028Z,45.64
2024-05-09T02:07:16.032Z,44.62
2024-05-09T02:08:16.156Z,43.52
2024-05-09T02:09:15.978Z,45.97
2024-05-09T02:10:20.491Z,48.76
2024-05-09T02:11:18.011Z,48.88
2024-05-09T02:12:16.094Z,46.71
2024-05-09T02:13:16.351Z,47.94
2024-05-09T02:14:15.961Z,47.89
2024-05-09T02:15:15.903Z,44.44
2024-05-09T02:16:15.907Z,46.61
2024-05-09T02:17:16.055Z,47.53
2024-05-09T02:18:16.005Z,43.73
2024-05-09T02:19:16.020Z,43.73
2024-05-09T02:20:22.626Z,49.49
2024-05-09T02:21:17.882Z,49.18
2024-05-09T02:22:15.848Z,47.82
2024-05-09T02:23:15.843Z,46.54
2024-05-09T02:24:15.803Z,44.98
2024-05-09T02:25:15.785Z,46.16
2024-05-09T02:26:15.890Z,51.13
2024-05-09T02:27:15.799Z,48.09
2024-05-09T02:28:15.746Z,45.83
2024-05-09T02:29:15.803Z,48.95
2024-05-09T02:30:22.831Z,51.10
2024-05-09T02:31:16.751Z,45.94
2024-05-09T02:32:15.751Z,44.00
2024-05-09T02:33:15.819Z,46.98
2024-05-09T02:34:15.767Z,48.44
2024-05-09T02:35:15.722Z,45.67
2024-05-09T02:36:15.671Z,42.54
2024-05-09T02:37:15.649Z,42.64
2024-05-09T02:38:15.707Z,42.94
2024-05-09T02:39:15.658Z,45.00
2024-05-09T02:40:21.628Z,46.73
2024-05-09T02:41:16.676Z,48.48
2024-05-09T02:42:15.614Z,46.06
2024-05-09T02:43:15.641Z,43.92
2024-05-09T02:44:15.633Z,46.41
2024-05-09T02:45:15.577Z,53.18
2024-05-09T02:46:15.560Z,49.67
2024-05-09T02:47:16.667Z,46.25
2024-05-09T02:48:15.632Z,49.30
2024-05-09T02:49:15.800Z,51.03
2024-05-09T02:50:23.011Z,53.70
2024-05-09T02:51:17.539Z,50.56
2024-05-09T02:52:15.484Z,53.54
2024-05-09T02:53:15.571Z,54.75
2024-05-09T02:54:15.474Z,49.50
2024-05-09T02:55:15.489Z,48.40
2024-05-09T02:56:15.542Z,51.53
2024-05-09T02:57:15.470Z,49.17
2024-05-09T02:58:15.432Z,49.06
2024-05-09T02:59:15.484Z,46.92
2024-05-09T03:00:22.530Z,48.07
2024-05-09T03:01:17.478Z,50.38
2024-05-09T03:02:15.464Z,49.80
2024-05-09T03:03:15.974Z,49.70
2024-05-09T03:04:15.403Z,49.69
2024-05-09T03:05:15.431Z,49.30
2024-05-09T03:06:15.382Z,47.85
2024-05-09T03:07:15.372Z,51.65
2024-05-09T03:08:15.481Z,50.51
2024-05-09T03:09:15.344Z,53.38
2024-05-09T03:10:22.231Z,51.50
2024-05-09T03:11:16.392Z,50.16
2024-05-09T03:12:15.307Z,49.51
2024-05-09T03:13:16.313Z,49.45
2024-05-09T03:14:15.312Z,53.94
2024-05-09T03:15:15.281Z,49.16
2024-05-09T03:16:15.274Z,52.78
2024-05-09T03:17:15.275Z,55.09
2024-05-09T03:18:15.609Z,47.61
2024-05-09T03:19:15.293Z,49.40
2024-05-09T03:20:20.704Z,52.79
2024-05-09T03:21:16.290Z,47.48
2024-05-09T03:22:15.207Z,46.38
2024-05-09T03:23:15.258Z,49.32
2024-05-09T03:24:15.189Z,48.81
2024-05-09T03:25:15.164Z,46.15
2024-05-09T03:26:15.209Z,48.06
2024-05-09T03:27:15.199Z,49.74
2024-05-09T03:28:15.159Z,52.42
2024-05-09T03:29:15.251Z,51.59
2024-05-09T03:30:28.779Z,50.93
2024-05-09T03:31:17.174Z,53.22
2024-05-09T03:32:15.131Z,48.09
2024-05-09T03:33:15.972Z,50.46
2024-05-09T03:34:15.090Z,47.11
2024-05-09T03:35:15.146Z,49.78
2024-05-09T03:36:15.112Z,53.21
2024-05-09T03:37:15.069Z,58.32
2024-05-09T03:38:15.426Z,51.48
2024-05-09T03:39:15.025Z,51.22
2024-05-09T03:40:20.856Z,55.06
2024-05-09T03:41:16.024Z,53.34
2024-05-09T03:42:14.976Z,51.45
2024-05-09T03:43:14.992Z,53.76
2024-05-09T03:44:15.026Z,51.85
2024-05-09T03:45:14.938Z,53.83
2024-05-09T03:46:14.978Z,53.32
2024-05-09T03:47:15.078Z,50.12
2024-05-09T03:48:15.110Z,48.42
2024-05-09T03:49:15.033Z,51.18
2024-05-09T03:50:22.043Z,51.14
2024-05-09T03:51:16.962Z,50.40
2024-05-09T03:52:14.881Z,51.29
2024-05-09T03:53:15.063Z,50.33
2024-05-09T03:54:14.867Z,53.57
2024-05-09T03:55:14.844Z,53.60
2024-05-09T03:56:14.927Z,53.05
2024-05-09T03:57:14.837Z,52.17
2024-05-09T03:58:14.828Z,50.99
2024-05-09T03:59:14.847Z,49.29
2024-05-09T04:00:21.927Z,49.17
2024-05-09T04:01:16.791Z,49.68
2024-05-09T04:02:14.957Z,51.19
2024-05-09T04:03:15.042Z,53.22
2024-05-09T04:04:14.876Z,52.48
2024-05-09T04:05:14.746Z,48.44
2024-05-09T04:06:14.756Z,51.60
2024-05-09T04:07:14.712Z,48.69
2024-05-09T04:08:15.147Z,51.17
2024-05-09T04:09:14.693Z,50.25
2024-05-09T04:10:23.676Z,50.48
2024-05-09T04:11:16.748Z,45.82
2024-05-09T04:12:14.784Z,50.72
2024-05-09T04:13:14.650Z,49.79
2024-05-09T04:14:14.698Z,52.48
2024-05-09T04:15:14.643Z,50.63
2024-05-09T04:16:47.098Z,48.86
2024-05-09T04:17:14.673Z,46.70
2024-05-09T04:18:14.674Z,50.82
2024-05-09T04:19:14.944Z,48.70
2024-05-09T04:20:24.278Z,50.34
2024-05-09T04:21:16.618Z,50.24
2024-05-09T04:22:15.558Z,49.09
2024-05-09T04:23:14.965Z,53.16
2024-05-09T04:24:14.578Z,49.78
2024-05-09T04:25:14.526Z,48.49
2024-05-09T04:26:14.582Z,45.44
2024-05-09T04:27:14.529Z,47.22
2024-05-09T04:28:14.597Z,51.02
2024-05-09T04:29:14.515Z,50.52
2024-05-09T04:30:21.731Z,54.22
2024-05-09T04:31:16.488Z,48.27
2024-05-09T04:32:14.548Z,51.21
2024-05-09T04:33:15.227Z,49.28
2024-05-09T04:34:14.692Z,52.44
2024-05-09T04:35:14.510Z,53.61
2024-05-09T04:36:14.432Z,49.93
2024-05-09T04:37:14.429Z,53.20
2024-05-09T04:38:15.188Z,53.13
2024-05-09T04:39:14.412Z,49.43
2024-05-09T04:40:23.965Z,53.20
2024-05-09T04:41:16.414Z,53.67
2024-05-09T04:42:14.397Z,51.18
2024-05-09T04:43:14.429Z,50.84
2024-05-09T04:44:14.351Z,55.27
2024-05-09T04:45:14.335Z,55.62
2024-05-09T04:46:14.342Z,53.48
2024-05-09T04:47:14.389Z,50.84
2024-05-09T04:48:14.592Z,49.95
2024-05-09T04:49:14.626Z,53.34
2024-05-09T04:50:21.188Z,53.55
2024-05-09T04:51:16.352Z,51.30
2024-05-09T04:52:14.278Z,53.44
2024-05-09T04:53:14.297Z,51.11
2024-05-09T04:54:26.019Z,51.39
2024-05-09T04:55:16.231Z,51.91
2024-05-09T04:56:14.350Z,53.92
2024-05-09T04:57:14.220Z,47.74
2024-05-09T04:58:14.196Z,49.31
2024-05-09T04:59:14.305Z,51.12
2024-05-09T05:00:18.067Z,52.23
2024-05-09T05:01:16.276Z,48.04
2024-05-09T05:02:14.311Z,48.33
2024-05-09T05:03:15.915Z,50.92
2024-05-09T05:04:14.217Z,51.54
2024-05-09T05:05:14.272Z,49.99
2024-05-09T05:06:14.115Z,49.26
2024-05-09T05:07:14.106Z,46.25
2024-05-09T05:08:14.566Z,47.13
2024-05-09T05:09:14.067Z,46.48
2024-05-09T05:10:21.418Z,47.37
2024-05-09T05:11:16.168Z,49.89
2024-05-09T05:12:14.145Z,48.26
2024-05-09T05:13:14.054Z,49.01
2024-05-09T05:14:14.102Z,48.71
2024-05-09T05:15:14.022Z,47.86
2024-05-09T05:16:14.017Z,54.59
2024-05-09T05:17:14.065Z,46.19
2024-05-09T05:18:15.143Z,46.75
2024-05-09T05:19:16.967Z,45.91
2024-05-09T05:20:18.051Z,47.22
2024-05-09T05:21:16.020Z,47.67
2024-05-09T05:22:13.954Z,49.05
2024-05-09T05:23:14.278Z,48.88
2024-05-09T05:24:13.967Z,49.87
2024-05-09T05:25:13.922Z,48.47
2024-05-09T05:26:14.010Z,50.71
2024-05-09T05:27:13.912Z,48.85
2024-05-09T05:28:13.897Z,47.27
2024-05-09T05:29:14.403Z,50.39
2024-05-09T05:30:21.129Z,49.06
2024-05-09T05:31:15.862Z,50.33
2024-05-09T05:32:14.138Z,49.06
2024-05-09T05:33:14.101Z,52.48
2024-05-09T05:34:13.932Z,46.91
2024-05-09T05:35:13.915Z,46.95
2024-05-09T05:36:13.828Z,49.90
2024-05-09T05:37:13.788Z,49.66
2024-05-09T05:38:13.820Z,49.81
2024-05-09T05:39:13.817Z,49.00
2024-05-09T05:40:24.609Z,48.43
2024-05-09T05:41:15.823Z,52.42
2024-05-09T05:42:13.749Z,48.27
2024-05-09T05:43:13.714Z,50.47
2024-05-09T05:44:13.766Z,50.65
2024-05-09T05:45:13.703Z,46.38
2024-05-09T05:46:13.704Z,51.32
2024-05-09T05:47:13.807Z,47.16
2024-05-09T05:48:14.067Z,46.46
2024-05-09T05:49:13.843Z,53.38
2024-05-09T05:50:23.788Z,53.09
2024-05-09T05:51:15.853Z,50.56
2024-05-09T05:52:13.647Z,49.17
2024-05-09T05:53:13.796Z,48.20
2024-05-09T05:54:13.633Z,51.18
2024-05-09T05:55:13.624Z,52.65
2024-05-09T05:56:13.673Z,48.81
2024-05-09T05:57:13.591Z,46.76
2024-05-09T05:58:13.564Z,50.33
2024-05-09T05:59:15.145Z,53.09
2024-05-09T06:01:14.601Z,46.49
2024-05-09T06:02:13.830Z,52.97
2024-05-09T06:03:14.286Z,51.80
2024-05-09T06:04:13.657Z,48.08
2024-05-09T06:05:13.591Z,53.40
2024-05-09T06:06:13.656Z,51.41
2024-05-09T06:07:13.507Z,48.74
2024-05-09T06:08:13.530Z,46.45
2024-05-09T06:09:13.481Z,46.56
2024-05-09T06:10:20.963Z,51.78
2024-05-09T06:11:15.505Z,50.15
2024-05-09T06:12:13.516Z,49.53
2024-05-09T06:13:14.258Z,49.36
2024-05-09T06:14:13.566Z,50.78
2024-05-09T06:15:13.415Z,52.99
2024-05-09T06:16:13.399Z,54.60
2024-05-09T06:17:13.555Z,51.60
2024-05-09T06:18:13.597Z,51.31
2024-05-09T06:19:13.555Z,48.61
2024-05-09T06:20:20.473Z,49.45
2024-05-09T06:21:15.473Z,53.86
2024-05-09T06:22:13.328Z,52.37
2024-05-09T06:23:13.649Z,55.79
2024-05-09T06:24:13.327Z,50.17
2024-05-09T06:25:13.312Z,50.24
2024-05-09T06:26:13.363Z,54.55
2024-05-09T06:27:13.294Z,52.99
2024-05-09T06:28:13.257Z,52.46
2024-05-09T06:29:13.258Z,53.51
2024-05-09T06:30:24.810Z,52.46
2024-05-09T06:31:15.263Z,54.99
2024-05-09T06:32:13.244Z,52.40
2024-05-09T06:33:15.427Z,52.75
2024-05-09T06:34:13.264Z,49.64
2024-05-09T06:35:13.248Z,53.34
2024-05-09T06:36:13.227Z,51.95
2024-05-09T06:37:13.199Z,52.90
2024-05-09T06:38:13.395Z,49.45
2024-05-09T06:39:13.146Z,54.07
2024-05-09T06:40:17.386Z,50.76
2024-05-09T06:41:13.143Z,54.35
2024-05-09T06:42:13.101Z,51.55
2024-05-09T06:43:13.306Z,53.36
2024-05-09T06:44:13.190Z,51.89
2024-05-09T06:45:13.084Z,49.77
2024-05-09T06:46:13.082Z,52.10
2024-05-09T06:47:13.113Z,50.36
2024-05-09T06:48:13.266Z,51.16
2024-05-09T06:49:13.113Z,59.20
2024-05-09T06:50:22.928Z,54.30
2024-05-09T06:51:14.190Z,53.52
2024-05-09T06:52:13.018Z,51.57
2024-05-09T06:53:13.037Z,46.49
2024-05-09T06:54:12.975Z,51.58
2024-05-09T06:55:12.998Z,48.57
2024-05-09T06:56:13.004Z,50.66
2024-05-09T06:57:12.934Z,51.09
2024-05-09T06:58:13.009Z,51.68
2024-05-09T06:59:12.958Z,48.57
2024-05-09T07:00:19.109Z,51.61
2024-05-09T07:01:14.951Z,51.00
2024-05-09T07:02:12.946Z,50.57
2024-05-09T07:03:14.866Z,54.67
2024-05-09T07:04:13.056Z,50.67
2024-05-09T07:05:13.010Z,52.19
2024-05-09T07:06:12.898Z,53.12
2024-05-09T07:07:12.847Z,54.18
2024-05-09T07:08:13.037Z,56.57
2024-05-09T07:09:12.833Z,51.10
2024-05-09T07:10:18.075Z,52.02
2024-05-09T07:11:14.871Z,52.14
2024-05-09T07:12:12.859Z,51.25
2024-05-09T07:13:12.869Z,55.18
2024-05-09T07:14:12.807Z,51.09
2024-05-09T07:15:12.765Z,48.85
2024-05-09T07:16:12.763Z,53.64
2024-05-09T07:17:12.804Z,53.23
2024-05-09T07:18:13.246Z,52.88
2024-05-09T07:19:12.943Z,52.34
2024-05-09T07:20:22.980Z,53.35
2024-05-09T07:21:14.776Z,50.58
2024-05-09T07:22:12.664Z,55.55
2024-05-09T07:23:12.911Z,51.46
2024-05-09T07:24:12.652Z,53.64
2024-05-09T07:25:12.705Z,53.31
2024-05-09T07:26:12.695Z,53.83
2024-05-09T07:27:12.622Z,51.29
2024-05-09T07:28:12.604Z,52.28
2024-05-09T07:29:12.648Z,48.66
2024-05-09T07:30:16.695Z,52.05
2024-05-09T07:31:13.582Z,53.53
2024-05-09T07:32:12.635Z,54.64
2024-05-09T07:33:12.655Z,55.43
2024-05-09T07:34:12.752Z,53.22
2024-05-09T07:35:12.564Z,56.69
2024-05-09T07:36:12.514Z,53.66
2024-05-09T07:37:12.530Z,55.41
2024-05-09T07:38:12.498Z,55.15
2024-05-09T07:39:12.494Z,52.88
2024-05-09T07:40:21.218Z,51.30
2024-05-09T07:41:13.877Z,48.21
2024-05-09T07:42:12.439Z,54.69
2024-05-09T07:43:12.422Z,50.91
2024-05-09T07:44:12.446Z,53.18
2024-05-09T07:45:29.812Z,50.98
2024-05-09T07:48:28.053Z,55.84
2024-05-09T07:49:45.013Z,52.87
2024-05-09T07:53:29.320Z,55.16
2024-05-09T07:53:37.582Z,54.49
2024-05-09T07:54:14.471Z,51.94
2024-05-09T07:55:12.437Z,55.26
2024-05-09T07:56:12.748Z,53.26
2024-05-09T07:57:12.313Z,55.82
2024-05-09T07:58:12.319Z,55.68
2024-05-09T07:59:12.308Z,54.94
2024-05-09T08:00:17.207Z,54.18
2024-05-09T08:01:13.379Z,51.88
2024-05-09T08:02:12.318Z,55.02
2024-05-09T08:03:12.299Z,51.18
2024-05-09T08:04:12.318Z,54.14
2024-05-09T08:05:12.448Z,50.92
2024-05-09T08:06:12.229Z,52.78
2024-05-09T08:07:12.258Z,54.75
2024-05-09T08:08:12.161Z,52.64
2024-05-09T08:09:16.967Z,53.40
2024-05-09T08:10:18.734Z,49.95
2024-05-09T08:11:13.183Z,52.52
2024-05-09T08:12:12.161Z,53.57
2024-05-09T08:13:12.283Z,50.29
2024-05-09T08:14:12.108Z,55.03
2024-05-09T08:15:12.102Z,53.38
2024-05-09T08:16:12.122Z,52.73
2024-05-09T08:17:12.144Z,51.58
2024-05-09T08:18:12.228Z,51.46
2024-05-09T08:19:12.255Z,52.42
2024-05-09T08:20:18.716Z,52.26
2024-05-09T08:21:13.035Z,50.75
2024-05-09T08:22:12.069Z,53.26
2024-05-09T08:23:12.046Z,50.84
2024-05-09T08:24:12.013Z,54.28
2024-05-09T08:25:13.977Z,53.09
2024-05-09T08:26:13.004Z,51.78
2024-05-09T08:27:11.953Z,51.80
2024-05-09T08:28:12.205Z,51.77
2024-05-09T08:29:12.020Z,53.42
2024-05-09T08:30:19.012Z,56.05
2024-05-09T08:31:13.988Z,55.02
2024-05-09T08:32:11.944Z,51.76
2024-05-09T08:33:11.940Z,52.34
2024-05-09T08:34:12.053Z,51.14
2024-05-09T08:35:11.895Z,56.03
2024-05-09T08:36:11.977Z,54.01
2024-05-09T08:37:19.414Z,57.12
2024-05-09T08:38:13.895Z,57.02
2024-05-09T08:39:11.868Z,51.76
2024-05-09T08:40:23.445Z,55.20
2024-05-09T08:41:13.802Z,50.50
2024-05-09T08:42:11.805Z,52.22
2024-05-09T08:43:12.992Z,51.18
2024-05-09T08:44:11.778Z,53.27
2024-05-09T08:45:11.793Z,53.77
2024-05-09T08:46:11.850Z,53.53
2024-05-09T08:47:11.803Z,53.82
2024-05-09T08:48:11.872Z,52.34
2024-05-09T08:49:11.948Z,53.11
2024-05-09T08:50:24.047Z,55.61
2024-05-09T08:51:13.708Z,51.09
2024-05-09T08:52:11.821Z,53.26
2024-05-09T08:53:11.696Z,53.57
2024-05-09T08:54:11.686Z,51.54
2024-05-09T08:55:11.687Z,52.50
2024-05-09T08:56:11.824Z,52.49
2024-05-09T08:57:11.643Z,51.62
2024-05-09T08:58:11.888Z,52.40
2024-05-09T08:59:11.639Z,55.51
2024-05-09T09:00:15.097Z,51.68
2024-05-09T09:01:13.754Z,54.74
2024-05-09T09:02:11.726Z,55.86
2024-05-09T09:03:11.682Z,54.68
2024-05-09T09:04:12.892Z,52.87
2024-05-09T09:05:12.688Z,53.56
2024-05-09T09:06:11.680Z,56.43
2024-05-09T09:07:11.597Z,54.12
2024-05-09T09:08:11.560Z,54.50
2024-05-09T09:09:11.543Z,51.87
2024-05-09T09:10:17.595Z,51.95
2024-05-09T09:11:12.596Z,53.22
2024-05-09T09:12:11.538Z,51.70
2024-05-09T09:13:11.675Z,53.46
2024-05-09T09:14:11.474Z,51.85
2024-05-09T09:15:11.467Z,52.01
2024-05-09T09:16:11.550Z,54.42
2024-05-09T09:17:11.531Z,53.00
2024-05-09T09:18:12.428Z,48.42
2024-05-09T09:19:12.654Z,52.36
2024-05-09T09:20:16.431Z,50.48
2024-05-09T09:21:13.422Z,52.10
2024-05-09T09:22:11.516Z,53.13
2024-05-09T09:23:11.383Z,54.32
2024-05-09T09:24:11.391Z,54.30
2024-05-09T09:25:11.424Z,54.80
2024-05-09T09:26:11.349Z,54.06
2024-05-09T09:27:11.360Z,54.67
2024-05-09T09:28:11.382Z,55.33
2024-05-09T09:29:11.337Z,55.53
2024-05-09T09:30:26.894Z,55.19
2024-05-09T09:31:13.396Z,52.37
2024-05-09T09:32:11.284Z,53.22
2024-05-09T09:33:11.786Z,53.60
2024-05-09T09:34:11.502Z,58.06
2024-05-09T09:35:11.264Z,57.68
2024-05-09T09:36:11.726Z,54.12
2024-05-09T09:37:12.380Z,52.02
2024-05-09T09:38:11.317Z,51.99
2024-05-09T09:39:11.216Z,55.14
2024-05-09T09:40:13.177Z,50.01
2024-05-09T09:41:11.275Z,52.49
2024-05-09T09:42:11.176Z,53.91
2024-05-09T09:43:11.382Z,52.40
2024-05-09T09:44:11.191Z,51.18
2024-05-09T09:45:11.149Z,52.72
2024-05-09T09:46:12.761Z,52.54
2024-05-09T09:47:11.154Z,54.04
2024-05-09T09:48:11.235Z,55.95
2024-05-09T09:49:11.305Z,53.17
2024-05-09T09:50:14.499Z,58.67
2024-05-09T09:51:13.079Z,55.24
2024-05-09T09:52:11.457Z,53.47
2024-05-09T09:53:12.063Z,51.43
2024-05-09T09:54:11.133Z,53.39
2024-05-09T09:55:11.204Z,54.76
2024-05-09T09:56:11.099Z,54.41
2024-05-09T09:57:11.039Z,51.36
2024-05-09T09:58:13.497Z,53.42
2024-05-09T09:59:11.062Z,56.01
2024-05-09T10:00:11.988Z,53.89
2024-05-09T10:01:13.102Z,52.34
2024-05-09T10:02:11.244Z,53.67
2024-05-09T10:03:11.013Z,52.74
2024-05-09T10:04:11.035Z,56.00
2024-05-09T10:05:11.151Z,57.55
2024-05-09T10:06:11.946Z,52.66
2024-05-09T10:07:11.049Z,50.56
2024-05-09T10:08:10.931Z,54.15
2024-05-09T10:09:10.919Z,50.25
2024-05-09T10:10:14.022Z,54.38
2024-05-09T10:11:12.937Z,51.25
2024-05-09T10:12:11.047Z,51.65
2024-05-09T10:13:10.934Z,53.88
2024-05-09T10:14:10.880Z,56.04
2024-05-09T10:15:10.847Z,51.98
2024-05-09T10:16:10.985Z,51.59
2024-05-09T10:17:10.875Z,49.75
2024-05-09T10:18:10.922Z,51.27
2024-05-09T10:19:10.890Z,50.46
2024-05-09T10:20:18.323Z,49.09
2024-05-09T10:21:12.827Z,52.18
2024-05-09T10:22:10.794Z,54.03
2024-05-09T10:23:10.756Z,53.33
2024-05-09T10:24:10.753Z,52.80
2024-05-09T10:25:10.850Z,58.72
2024-05-09T10:26:10.778Z,54.89
2024-05-09T10:27:10.781Z,51.25
2024-05-09T10:28:10.786Z,53.85
2024-05-09T10:29:10.673Z,51.72
2024-05-09T10:30:17.681Z,55.76
2024-05-09T10:31:12.713Z,51.56
2024-05-09T10:32:10.661Z,50.54
2024-05-09T10:33:10.806Z,50.89
2024-05-09T10:34:10.867Z,55.38
2024-05-09T10:35:10.733Z,51.85
2024-05-09T10:36:10.634Z,53.19
2024-05-09T10:37:10.695Z,52.90
2024-05-09T10:38:10.590Z,56.75
2024-05-09T10:39:10.606Z,53.60
2024-05-09T10:40:17.251Z,57.53
2024-05-09T10:41:12.551Z,51.70
2024-05-09T10:42:10.561Z,51.12
2024-05-09T10:43:10.563Z,56.05
2024-05-09T10:44:10.564Z,53.50
2024-05-09T10:45:10.523Z,53.14
2024-05-09T10:46:10.872Z,54.57
2024-05-09T10:47:10.546Z,53.40
2024-05-09T10:48:10.610Z,53.95
2024-05-09T10:49:10.561Z,52.18
2024-05-09T10:50:18.480Z,52.56
2024-05-09T10:51:12.495Z,54.39
2024-05-09T10:52:10.548Z,52.47
2024-05-09T10:53:10.440Z,52.46
2024-05-09T10:54:10.418Z,50.59
2024-05-09T10:55:10.557Z,56.30
2024-05-09T10:56:10.507Z,51.87
2024-05-09T10:57:10.433Z,55.31
2024-05-09T10:58:10.507Z,51.70
2024-05-09T10:59:10.431Z,52.87
2024-05-09T11:00:18.886Z,50.30
2024-05-09T11:01:12.495Z,55.24
2024-05-09T11:02:10.503Z,56.22
2024-05-09T11:03:10.338Z,55.56
2024-05-09T11:04:10.516Z,54.54
2024-05-09T11:05:10.456Z,55.33
2024-05-09T11:06:10.318Z,54.75
2024-05-09T11:07:10.392Z,57.60
2024-05-09T11:08:10.297Z,50.62
2024-05-09T11:09:10.371Z,53.56
2024-05-09T11:10:14.502Z,53.13
2024-05-09T11:11:11.295Z,55.37
2024-05-09T11:12:10.411Z,57.20
2024-05-09T11:13:10.345Z,52.54
2024-05-09T11:14:10.222Z,50.43
2024-05-09T11:15:10.358Z,54.99
2024-05-09T11:16:10.295Z,53.32
2024-05-09T11:17:10.271Z,54.79
2024-05-09T11:18:10.328Z,54.08
2024-05-09T11:19:10.363Z,59.10
2024-05-09T11:20:16.747Z,56.31
2024-05-09T11:21:12.395Z,52.73
2024-05-09T11:22:10.233Z,54.47
2024-05-09T11:23:10.164Z,52.21
2024-05-09T11:24:11.551Z,54.03
2024-05-09T11:25:11.230Z,53.78
2024-05-09T11:26:10.147Z,51.91
2024-05-09T11:27:10.168Z,55.60
2024-05-09T11:28:10.292Z,52.41
2024-05-09T11:29:10.174Z,50.96
2024-05-09T11:30:17.227Z,52.94
2024-05-09T11:31:12.064Z,51.86
2024-05-09T11:32:10.101Z,50.89
2024-05-09T11:33:10.184Z,53.98
2024-05-09T11:34:10.115Z,52.58
2024-05-09T11:35:10.064Z,52.31
2024-05-09T11:36:10.095Z,53.95
2024-05-09T11:37:10.038Z,52.83
2024-05-09T11:38:09.991Z,56.68
2024-05-09T11:39:10.036Z,52.11
2024-05-09T11:40:16.807Z,55.81
2024-05-09T11:41:11.955Z,54.77
2024-05-09T11:42:09.951Z,53.48
2024-05-09T11:43:10.102Z,55.95
2024-05-09T11:44:09.935Z,60.47
2024-05-09T11:45:09.934Z,55.68
2024-05-09T11:46:09.991Z,55.51
2024-05-09T11:47:09.922Z,54.38
2024-05-09T11:48:09.999Z,54.58
2024-05-09T11:49:10.109Z,56.38
2024-05-09T11:50:16.012Z,53.62
2024-05-09T11:51:11.881Z,58.71
2024-05-09T11:52:09.914Z,54.43
2024-05-09T11:53:09.843Z,56.52
2024-05-09T11:54:09.873Z,53.01
2024-05-09T11:55:09.918Z,53.03
2024-05-09T11:56:09.826Z,59.01
2024-05-09T11:57:09.877Z,54.74
2024-05-09T11:58:09.874Z,52.98
2024-05-09T11:59:09.771Z,52.36
2024-05-09T12:00:14.779Z,50.76
2024-05-09T12:01:10.865Z,51.43
2024-05-09T12:02:10.046Z,52.64
2024-05-09T12:03:09.839Z,54.57
2024-05-09T12:04:09.988Z,55.45
2024-05-09T12:05:09.998Z,55.84
2024-05-09T12:06:09.776Z,53.21
2024-05-09T12:07:12.765Z,52.27
2024-05-09T12:08:10.768Z,57.21
2024-05-09T12:09:09.771Z,54.58
2024-05-09T12:10:16.500Z,54.78
2024-05-09T12:11:11.715Z,52.43
2024-05-09T12:12:09.710Z,54.99
2024-05-09T12:13:09.652Z,54.77
2024-05-09T12:14:10.640Z,52.22
2024-05-09T12:15:09.650Z,54.95
2024-05-09T12:16:09.730Z,54.61
2024-05-09T12:17:09.606Z,54.29
2024-05-09T12:18:09.661Z,55.54
2024-05-09T12:19:09.934Z,53.51
2024-05-09T12:20:17.492Z,52.89
2024-05-09T12:21:11.604Z,55.37
2024-05-09T12:22:09.911Z,53.10
2024-05-09T12:23:10.499Z,50.52
2024-05-09T12:24:09.575Z,51.38
2024-05-09T12:25:09.631Z,51.73
2024-05-09T12:26:09.534Z,51.19
2024-05-09T12:27:09.503Z,53.69
2024-05-09T12:28:09.611Z,53.48
2024-05-09T12:29:09.456Z,52.79
2024-05-09T12:30:14.135Z,50.11
2024-05-09T12:31:10.555Z,51.85
2024-05-09T12:32:09.569Z,54.99
2024-05-09T12:33:09.878Z,54.49
2024-05-09T12:34:09.553Z,56.59
2024-05-09T12:35:09.455Z,59.81
2024-05-09T12:36:09.427Z,50.92
2024-05-09T12:37:09.488Z,51.99
2024-05-09T12:38:09.384Z,49.51
2024-05-09T12:39:09.436Z,52.28
2024-05-09T12:40:18.466Z,53.21
2024-05-09T12:41:11.371Z,53.56
2024-05-09T12:42:11.022Z,54.32
2024-05-09T12:43:10.485Z,52.53
2024-05-09T12:44:09.349Z,56.14
2024-05-09T12:45:09.325Z,52.98
2024-05-09T12:46:09.473Z,52.78
2024-05-09T12:47:10.316Z,54.22
2024-05-09T12:48:09.416Z,55.81
2024-05-09T12:49:09.606Z,51.75
2024-05-09T12:50:18.886Z,52.68
2024-05-09T12:51:10.378Z,52.26
2024-05-09T12:52:09.519Z,51.01
2024-05-09T12:53:09.259Z,53.15
2024-05-09T12:54:09.212Z,50.61
2024-05-09T12:55:09.340Z,54.71
2024-05-09T12:56:09.610Z,53.50
2024-05-09T12:57:10.219Z,51.26